Time;durP1;ratioP1;P1;durP2;ratioP2;P2;SDS_P1;SDS_P2;PMS_P1;PMS_P2;Temp;Humidity;BMP_temperature;BMP_pressure;BME280_temperature;BME280_humidity;BME280_pressure;Samples;Min_cycle;Max_cycle;Signal;HPM_P1;HPM_P2
2022/01/04 00:02:18;;;;;;;4.07;2.10;;;11.50;99.90;;;;;;5011295;28;20418;-60
2022/01/04 00:04:43;;;;;;;3.10;2.07;;;11.50;99.90;;;;;;5014310;28;20507;-59
2022/01/04 00:07:09;;;;;;;2.43;1.70;;;11.50;99.90;;;;;;5008765;28;20840;-59
2022/01/04 00:09:39;;;;;;;3.90;2.10;;;11.60;99.90;;;;;;5014090;28;20768;-59
2022/01/04 00:14:50;;;;;;;4.03;2.17;;;11.50;99.90;;;;;;5008580;28;21058;-59
2022/01/04 00:17:16;;;;;;;3.80;2.00;;;11.50;99.90;;;;;;5008532;28;20438;-59
2022/01/04 00:19:42;;;;;;;2.43;1.90;;;11.50;99.90;;;;;;5011880;28;20184;-59
2022/01/04 00:22:08;;;;;;;2.33;1.80;;;11.50;99.90;;;;;;5014543;28;20658;-59
2022/01/04 00:24:34;;;;;;;3.03;1.93;;;11.50;99.90;;;;;;5014411;28;20216;-60
2022/01/04 00:27:00;;;;;;;3.63;2.20;;;11.50;99.90;;;;;;5013166;28;20443;-59
2022/01/04 00:29:25;;;;;;;3.17;1.97;;;11.40;99.90;;;;;;5015067;28;20441;-60
2022/01/04 00:31:51;;;;;;;2.20;1.90;;;11.50;99.90;;;;;;5014568;28;20200;-59
2022/01/04 00:34:17;;;;;;;2.93;2.30;;;11.40;99.90;;;;;;5012870;28;20212;-60
2022/01/04 00:36:42;;;;;;;3.40;2.00;;;11.40;99.90;;;;;;5012556;28;20213;-59
2022/01/04 00:39:08;;;;;;;2.90;1.87;;;11.40;99.90;;;;;;5014136;28;20272;-59
2022/01/04 00:41:34;;;;;;;1.80;1.53;;;11.50;99.90;;;;;;5017496;28;20196;-59
2022/01/04 00:43:59;;;;;;;2.27;1.80;;;11.50;99.90;;;;;;5014036;28;20749;-59
2022/01/04 00:46:25;;;;;;;2.27;2.07;;;11.50;99.90;;;;;;5017646;28;20213;-59
2022/01/04 00:49:10;;;;;;;3.10;2.03;;;11.50;99.90;;;;;;5016120;28;20224;-59
2022/01/04 00:51:40;;;;;;;2.83;1.80;;;11.50;99.90;;;;;;5020628;28;20192;-59
2022/01/04 00:54:06;;;;;;;2.23;1.90;;;11.50;99.90;;;;;;5016622;28;20478;-59
2022/01/04 00:56:32;;;;;;;2.30;1.80;;;11.50;99.90;;;;;;5017332;28;20443;-59
2022/01/04 00:58:58;;;;;;;4.10;2.03;;;11.50;99.90;;;;;;5019162;28;21060;-59
2022/01/04 01:01:23;;;;;;;1.80;1.70;;;11.50;99.90;;;;;;5019998;28;20196;-59
2022/01/04 01:03:49;;;;;;;4.20;1.97;;;11.50;99.90;;;;;;5019342;28;20196;-60
2022/01/04 01:06:15;;;;;;;5.10;2.10;;;11.50;99.90;;;;;;5019219;28;20216;-60
2022/01/04 01:08:41;;;;;;;2.00;1.80;;;11.40;99.90;;;;;;5015485;28;20279;-60
2022/01/04 01:11:08;;;;;;;3.17;1.90;;;11.50;99.90;;;;;;5018149;28;20646;-59
2022/01/04 01:13:34;;;;;;;3.07;1.90;;;11.40;99.90;;;;;;5017528;28;20528;-59
2022/01/04 01:16:00;;;;;;;2.90;1.83;;;11.50;99.90;;;;;;5017961;28;20498;-59
2022/01/04 01:18:26;;;;;;;3.93;2.17;;;11.40;99.90;;;;;;5021654;28;20454;-59
2022/01/04 01:20:52;;;;;;;2.60;1.93;;;11.40;99.90;;;;;;5015459;28;20444;-59
2022/01/04 01:23:19;;;;;;;2.43;2.00;;;11.40;99.90;;;;;;5019656;28;20199;-59
2022/01/04 01:25:45;;;;;;;5.20;2.30;;;11.40;99.90;;;;;;5016235;28;20881;-59
2022/01/04 01:28:11;;;;;;;4.10;3.23;;;11.40;99.90;;;;;;5017713;28;20439;-59
2022/01/04 01:30:39;;;;;;;3.80;3.40;;;11.40;99.90;;;;;;5019785;28;20447;-59
2022/01/04 01:33:05;;;;;;;2.53;2.23;;;11.40;99.90;;;;;;5017372;28;20571;-59
2022/01/04 01:35:31;;;;;;;3.13;2.20;;;11.40;99.90;;;;;;5016894;28;20472;-59
2022/01/04 01:37:58;;;;;;;3.20;2.03;;;11.40;99.90;;;;;;5012646;28;20251;-60
2022/01/04 01:40:24;;;;;;;3.50;2.27;;;11.40;99.90;;;;;;5017265;28;20185;-60
2022/01/04 01:42:50;;;;;;;2.37;2.17;;;11.40;99.90;;;;;;5018878;28;20431;-60
2022/01/04 01:45:16;;;;;;;2.80;2.20;;;11.40;99.90;;;;;;5014565;28;20982;-60
2022/01/04 01:47:44;;;;;;;6.63;3.03;;;11.40;99.90;;;;;;5013868;28;20193;-60
2022/01/04 01:50:11;;;;;;;4.03;2.53;;;11.50;99.90;;;;;;5017346;28;20478;-60
2022/01/04 01:52:40;;;;;;;4.63;2.47;;;11.50;99.90;;;;;;5015998;28;20482;-58
2022/01/04 01:55:07;;;;;;;4.47;2.63;;;11.50;99.90;;;;;;5019418;28;20920;-59
2022/01/04 01:57:33;;;;;;;4.27;2.43;;;11.50;99.90;;;;;;5015831;28;20806;-59
2022/01/04 01:59:59;;;;;;;2.80;2.30;;;11.50;99.90;;;;;;5017626;28;20435;-60
2022/01/04 02:02:24;;;;;;;2.50;2.30;;;11.50;99.90;;;;;;5007799;28;20197;-60
2022/01/04 02:04:50;;;;;;;4.20;2.13;;;11.40;99.90;;;;;;5012389;28;20860;-60
2022/01/04 02:07:18;;;;;;;4.30;2.33;;;11.40;99.90;;;;;;5016759;28;20193;-59
2022/01/04 02:09:52;;;;;;;2.77;1.90;;;11.40;99.90;;;;;;5013595;28;20193;-60
2022/01/04 02:12:19;;;;;;;4.90;3.23;;;11.40;99.90;;;;;;5020855;28;20477;-60
2022/01/04 02:14:51;;;;;;;3.10;2.30;;;11.40;99.90;;;;;;5017867;28;21050;-59
2022/01/04 02:17:17;;;;;;;2.90;2.30;;;11.40;99.90;;;;;;5016863;28;20440;-59
2022/01/04 02:19:43;;;;;;;3.57;2.20;;;11.40;99.90;;;;;;5015006;28;20440;-60
2022/01/04 02:22:08;;;;;;;4.80;2.23;;;11.40;99.90;;;;;;5019750;28;20821;-60
2022/01/04 02:24:34;;;;;;;2.20;2.00;;;11.30;99.90;;;;;;5011857;28;20215;-60
2022/01/04 02:27:00;;;;;;;3.50;2.37;;;11.40;99.90;;;;;;5019765;28;20181;-60
2022/01/04 02:29:27;;;;;;;2.53;2.33;;;11.40;99.90;;;;;;5023496;28;20740;-60
2022/01/04 02:31:53;;;;;;;3.50;2.10;;;11.50;99.90;;;;;;5022980;28;20459;-60
2022/01/04 02:34:19;;;;;;;2.00;1.77;;;11.50;99.90;;;;;;5020249;28;20478;-60
2022/01/04 02:36:45;;;;;;;3.40;2.60;;;11.50;99.90;;;;;;5016250;28;20550;-60
2022/01/04 02:39:11;;;;;;;3.00;2.17;;;11.50;99.90;;;;;;5018031;28;20470;-60
2022/01/04 02:41:36;;;;;;;4.23;2.23;;;11.60;99.90;;;;;;5018022;28;20234;-60
2022/01/04 02:44:02;;;;;;;4.00;2.13;;;11.60;99.90;;;;;;5020432;28;20268;-60
2022/01/04 02:46:28;;;;;;;2.77;2.30;;;11.60;99.90;;;;;;5017953;28;20259;-60
2022/01/04 02:48:53;;;;;;;2.70;2.27;;;11.60;99.90;;;;;;5019245;28;20526;-60
2022/01/04 02:51:19;;;;;;;3.93;2.60;;;11.60;99.90;;;;;;5019307;28;20539;-60
2022/01/04 02:53:45;;;;;;;3.00;2.27;;;11.70;99.90;;;;;;5018636;28;20197;-60
2022/01/04 02:56:13;;;;;;;2.60;2.00;;;11.80;99.90;;;;;;5019854;28;20219;-60
2022/01/04 02:58:39;;;;;;;2.83;2.10;;;11.80;99.90;;;;;;5015875;28;20431;-60
2022/01/04 03:01:04;;;;;;;3.50;2.30;;;11.70;99.90;;;;;;5018494;28;20431;-59
2022/01/04 03:03:31;;;;;;;2.97;2.23;;;11.60;99.90;;;;;;5018784;28;20575;-60
2022/01/04 03:05:57;;;;;;;3.97;2.27;;;11.60;99.90;;;;;;5017937;28;20231;-60
2022/01/04 03:08:23;;;;;;;2.47;2.10;;;11.60;99.90;;;;;;5022178;28;20455;-60
2022/01/04 03:10:50;;;;;;;2.93;2.47;;;11.50;99.90;;;;;;5017423;28;20668;-60
2022/01/04 03:13:16;;;;;;;3.80;2.17;;;11.50;99.90;;;;;;5019291;28;20492;-60
2022/01/04 03:15:46;;;;;;;2.67;2.47;;;11.50;99.90;;;;;;5016771;28;20475;-58
2022/01/04 03:18:12;;;;;;;2.83;2.27;;;11.50;99.90;;;;;;5018622;28;20439;-59
2022/01/04 03:20:37;;;;;;;3.10;2.20;;;11.50;99.90;;;;;;5020229;28;20806;-59
2022/01/04 03:23:03;;;;;;;3.80;2.40;;;11.40;99.90;;;;;;5019472;28;20458;-60
2022/01/04 03:25:29;;;;;;;2.40;2.20;;;11.40;99.90;;;;;;5019749;28;20221;-59
2022/01/04 03:27:55;;;;;;;5.10;2.20;;;11.30;99.90;;;;;;5018977;28;20200;-59
2022/01/04 03:30:20;;;;;;;2.50;1.87;;;11.30;99.90;;;;;;5020040;28;20958;-59
2022/01/04 03:32:46;;;;;;;3.90;2.30;;;11.30;99.90;;;;;;5018519;28;20184;-59
2022/01/04 03:35:11;;;;;;;2.47;1.87;;;11.30;99.90;;;;;;5016907;28;20220;-59
2022/01/04 03:37:37;;;;;;;3.77;2.20;;;11.30;99.90;;;;;;5022202;28;20219;-59
2022/01/04 03:40:05;;;;;;;5.00;2.40;;;11.30;99.90;;;;;;5023309;28;20191;-59
2022/01/04 03:42:30;;;;;;;2.77;2.30;;;11.30;99.90;;;;;;5020366;28;20918;-59
2022/01/04 03:44:56;;;;;;;2.23;2.03;;;11.20;99.90;;;;;;5017520;28;20545;-60
2022/01/04 03:47:22;;;;;;;4.60;2.03;;;11.20;99.90;;;;;;5018797;28;20189;-59
2022/01/04 03:49:47;;;;;;;2.60;2.00;;;11.20;99.90;;;;;;5019093;28;20279;-59
2022/01/04 03:52:13;;;;;;;9.50;2.60;;;11.20;99.90;;;;;;5015589;28;20219;-60
2022/01/04 03:54:38;;;;;;;3.33;2.10;;;11.20;99.90;;;;;;5017709;28;20603;-59
2022/01/04 03:57:05;;;;;;;2.57;2.00;;;11.20;99.90;;;;;;5017865;28;20568;-59
2022/01/04 03:59:30;;;;;;;2.60;1.90;;;11.20;99.90;;;;;;5016162;28;20192;-59
2022/01/04 04:01:56;;;;;;;2.60;2.40;;;11.10;99.90;;;;;;5020459;28;20443;-59
2022/01/04 04:04:21;;;;;;;2.90;2.10;;;11.10;99.90;;;;;;5019002;28;20192;-59
2022/01/04 04:06:47;;;;;;;4.50;2.47;;;11.20;99.90;;;;;;5016138;28;20195;-59
2022/01/04 04:09:13;;;;;;;3.80;2.00;;;11.20;99.90;;;;;;5018519;28;20184;-60
2022/01/04 04:11:38;;;;;;;4.50;2.50;;;11.20;99.90;;;;;;5017545;28;20191;-59
2022/01/04 04:14:04;;;;;;;4.83;2.03;;;11.10;99.90;;;;;;5016985;28;20303;-60
2022/01/04 04:16:31;;;;;;;2.50;2.00;;;11.10;99.90;;;;;;5018986;28;20201;-60
2022/01/04 04:18:57;;;;;;;2.57;2.07;;;11.10;99.90;;;;;;5019076;28;20658;-60
2022/01/04 04:21:22;;;;;;;3.50;2.10;;;11.10;99.90;;;;;;5019092;28;20423;-60
2022/01/04 04:23:48;;;;;;;3.07;1.77;;;11.10;99.90;;;;;;5020841;28;20215;-59
2022/01/04 04:26:14;;;;;;;3.23;2.30;;;11.10;99.90;;;;;;5018058;28;20818;-60
2022/01/04 04:28:39;;;;;;;2.93;2.20;;;11.10;99.90;;;;;;5016055;28;20188;-59
2022/01/04 04:31:05;;;;;;;4.47;1.87;;;11.10;99.90;;;;;;5015244;28;20749;-59
2022/01/04 04:33:31;;;;;;;2.50;1.70;;;11.10;99.90;;;;;;5021105;28;20868;-59
2022/01/04 04:35:57;;;;;;;4.20;2.57;;;11.10;99.90;;;;;;5019316;28;20853;-60
2022/01/04 04:38:23;;;;;;;4.80;2.10;;;11.10;99.90;;;;;;5019067;28;20443;-59
2022/01/04 04:40:48;;;;;;;1.90;1.60;;;11.10;99.90;;;;;;5021316;28;20199;-59
2022/01/04 04:43:14;;;;;;;2.63;2.20;;;11.00;99.90;;;;;;5018379;28;20196;-60
2022/01/04 04:45:39;;;;;;;2.07;1.77;;;11.00;99.90;;;;;;5018826;28;20383;-59
2022/01/04 04:48:05;;;;;;;2.10;1.90;;;11.10;99.90;;;;;;5015423;28;20230;-60
2022/01/04 04:50:31;;;;;;;4.20;1.80;;;11.00;99.90;;;;;;5016350;28;20185;-60
2022/01/04 04:52:57;;;;;;;3.07;2.03;;;11.10;99.90;;;;;;5018783;28;20192;-59
2022/01/04 04:55:23;;;;;;;3.20;2.97;;;11.10;99.90;;;;;;5017546;28;20470;-59
2022/01/04 04:57:48;;;;;;;2.10;1.63;;;11.10;99.90;;;;;;5017121;28;20198;-60
2022/01/04 05:00:15;;;;;;;3.40;2.10;;;11.10;99.90;;;;;;5018139;28;20192;-60
2022/01/04 05:02:40;;;;;;;2.17;1.83;;;11.10;99.90;;;;;;5015595;28;20279;-59
2022/01/04 05:05:07;;;;;;;3.10;2.13;;;11.10;99.90;;;;;;5018484;28;20482;-60
2022/01/04 05:07:34;;;;;;;6.37;1.90;;;11.00;99.90;;;;;;5015812;28;20196;-60
2022/01/04 05:10:00;;;;;;;2.07;1.80;;;11.10;99.90;;;;;;5018199;28;20912;-59
2022/01/04 05:12:26;;;;;;;4.07;1.93;;;11.10;99.90;;;;;;5017989;28;20517;-60
2022/01/04 05:14:51;;;;;;;3.13;2.20;;;11.10;99.90;;;;;;5017413;28;20565;-59
2022/01/04 05:17:17;;;;;;;3.13;1.80;;;11.10;99.90;;;;;;5021200;28;20180;-59
2022/01/04 05:19:42;;;;;;;2.80;1.63;;;11.10;99.90;;;;;;5018428;28;20299;-58
2022/01/04 05:22:08;;;;;;;2.97;1.70;;;11.10;99.90;;;;;;5016731;28;20197;-58
2022/01/04 05:24:34;;;;;;;2.13;1.70;;;11.10;99.90;;;;;;5019851;28;20212;-58
2022/01/04 05:27:01;;;;;;;1.67;1.50;;;11.10;99.90;;;;;;5021449;28;20573;-58
2022/01/04 05:29:26;;;;;;;2.00;1.70;;;11.10;99.90;;;;;;5021374;28;20874;-59
2022/01/04 05:31:52;;;;;;;2.50;1.60;;;11.20;99.90;;;;;;5019745;28;20450;-59
2022/01/04 05:34:17;;;;;;;2.47;1.77;;;11.20;99.90;;;;;;5022068;28;20244;-59
2022/01/04 05:36:43;;;;;;;2.03;1.50;;;11.20;99.90;;;;;;5022158;28;20665;-59
2022/01/04 05:39:09;;;;;;;2.57;2.00;;;11.20;99.90;;;;;;5022838;28;20613;-59
2022/01/04 05:41:34;;;;;;;3.80;1.90;;;11.20;99.90;;;;;;5021189;28;20212;-59
2022/01/04 05:44:00;;;;;;;3.13;2.00;;;11.20;99.90;;;;;;5020040;28;20196;-60
2022/01/04 05:46:26;;;;;;;2.10;1.90;;;11.30;99.90;;;;;;5019072;28;20220;-59
2022/01/04 05:48:52;;;;;;;1.70;1.50;;;11.30;99.90;;;;;;5019278;28;20424;-59
2022/01/04 05:51:17;;;;;;;2.27;1.73;;;11.30;99.90;;;;;;5019454;28;20558;-60
2022/01/04 05:53:43;;;;;;;4.53;2.00;;;11.30;99.90;;;;;;5020334;28;20246;-60
2022/01/04 05:56:09;;;;;;;2.07;1.77;;;11.30;99.90;;;;;;5018699;28;20224;-59
2022/01/04 05:58:34;;;;;;;2.60;1.60;;;11.30;99.90;;;;;;5018073;28;20498;-60
2022/01/04 06:01:00;;;;;;;1.87;1.67;;;11.30;99.90;;;;;;5023330;28;20466;-60
2022/01/04 06:03:26;;;;;;;1.97;1.60;;;11.30;99.90;;;;;;5017843;28;20184;-60
2022/01/04 06:05:53;;;;;;;2.17;1.70;;;11.30;99.90;;;;;;5018711;28;20508;-59
2022/01/04 06:08:20;;;;;;;2.23;1.90;;;11.40;99.90;;;;;;5020836;28;20215;-59
2022/01/04 06:10:50;;;;;;;2.40;1.90;;;11.40;99.90;;;;;;5017434;28;20454;-60
2022/01/04 06:16:00;;;;;;;2.70;1.77;;;11.40;99.90;;;;;;5021618;28;20552;-59
2022/01/04 06:18:26;;;;;;;2.77;1.77;;;11.30;99.90;;;;;;5018889;28;20432;-60
2022/01/04 06:20:51;;;;;;;2.03;1.83;;;11.40;99.90;;;;;;5017329;28;20185;-59
2022/01/04 06:23:17;;;;;;;2.57;1.60;;;11.40;99.90;;;;;;5021306;28;20605;-60
2022/01/04 06:25:42;;;;;;;4.20;1.93;;;11.40;99.90;;;;;;5022309;28;20200;-59
2022/01/04 06:28:08;;;;;;;2.90;1.97;;;11.40;99.90;;;;;;5019871;28;20388;-60
2022/01/04 06:30:34;;;;;;;2.70;1.73;;;11.40;99.90;;;;;;5020725;28;20201;-59
2022/01/04 06:33:00;;;;;;;2.80;2.00;;;11.40;99.90;;;;;;5021804;28;20185;-59
2022/01/04 06:35:27;;;;;;;2.27;1.93;;;11.50;99.90;;;;;;5017038;28;20212;-59
2022/01/04 06:37:53;;;;;;;2.37;2.17;;;11.50;99.90;;;;;;5017458;28;20187;-60
2022/01/04 06:40:19;;;;;;;3.40;1.93;;;11.50;99.90;;;;;;5019808;28;20435;-59
2022/01/04 06:42:45;;;;;;;5.80;2.20;;;11.50;99.90;;;;;;5018221;28;20436;-60
2022/01/04 06:45:11;;;;;;;2.33;1.50;;;11.50;99.90;;;;;;5020491;28;20219;-60
2022/01/04 06:47:37;;;;;;;3.60;2.30;;;11.50;99.90;;;;;;5018146;28;20246;-59
2022/01/04 06:50:04;;;;;;;3.10;1.80;;;11.50;99.90;;;;;;5020090;28;20455;-60
2022/01/04 06:52:30;;;;;;;2.17;1.97;;;11.50;99.90;;;;;;5020675;28;20183;-59
2022/01/04 06:54:55;;;;;;;1.90;1.50;;;11.50;99.90;;;;;;5018169;28;20470;-59
2022/01/04 06:57:21;;;;;;;4.67;2.13;;;11.50;99.90;;;;;;5019253;28;20189;-59
2022/01/04 06:59:47;;;;;;;1.80;1.70;;;11.50;99.90;;;;;;5017127;28;20555;-59
2022/01/04 07:02:12;;;;;;;2.00;1.80;;;11.60;99.90;;;;;;5015099;28;20276;-59
2022/01/04 07:04:38;;;;;;;2.50;2.00;;;11.60;99.90;;;;;;5014893;28;20258;-59
2022/01/04 07:07:03;;;;;;;4.57;2.10;;;11.60;99.90;;;;;;5015423;28;20199;-59
2022/01/04 07:09:29;;;;;;;2.20;1.70;;;11.60;99.90;;;;;;5016581;28;22238;-59
2022/01/04 07:11:55;;;;;;;2.17;1.83;;;11.70;99.90;;;;;;5016483;28;20193;-59
2022/01/04 07:14:20;;;;;;;2.30;1.90;;;11.70;99.90;;;;;;5011946;28;20224;-59
2022/01/04 07:16:46;;;;;;;2.57;1.70;;;11.70;99.90;;;;;;5017257;28;20684;-59
2022/01/04 07:19:12;;;;;;;2.50;2.00;;;11.80;99.90;;;;;;5015854;28;20212;-60
2022/01/04 07:21:37;;;;;;;2.60;1.80;;;11.80;99.90;;;;;;5017343;28;20194;-59
2022/01/04 07:24:05;;;;;;;5.93;2.40;;;11.80;99.90;;;;;;5017139;28;20180;-59
2022/01/04 07:26:30;;;;;;;2.90;1.97;;;11.80;99.90;;;;;;5017704;28;20197;-59
2022/01/04 07:28:56;;;;;;;1.83;1.60;;;11.80;99.90;;;;;;5019957;28;20506;-59
2022/01/04 07:31:22;;;;;;;3.67;1.90;;;11.80;99.90;;;;;;5015121;28;20601;-59
2022/01/04 07:33:47;;;;;;;2.50;1.87;;;11.80;99.90;;;;;;5015283;28;20434;-59
2022/01/04 07:36:15;;;;;;;1.70;1.43;;;11.80;99.90;;;;;;5016033;28;20246;-59
2022/01/04 07:38:41;;;;;;;2.33;1.60;;;11.80;99.90;;;;;;5020407;28;20517;-59
2022/01/04 07:41:07;;;;;;;2.10;1.87;;;11.80;99.90;;;;;;5019746;28;20454;-59
2022/01/04 07:43:33;;;;;;;1.90;1.60;;;11.80;99.90;;;;;;5018947;28;20427;-59
2022/01/04 07:45:59;;;;;;;2.23;1.63;;;11.90;99.90;;;;;;5018940;28;20251;-60
2022/01/04 07:48:24;;;;;;;4.70;2.00;;;11.90;99.90;;;;;;5016604;28;20468;-59
2022/01/04 07:50:51;;;;;;;3.37;1.70;;;11.90;99.90;;;;;;5007171;28;20194;-59
2022/01/04 07:53:16;;;;;;;2.03;1.63;;;11.90;99.90;;;;;;5012791;28;20184;-59
2022/01/04 07:55:42;;;;;;;3.37;2.17;;;11.90;99.90;;;;;;5018411;28;20850;-58
2022/01/04 07:58:08;;;;;;;4.80;1.70;;;11.90;99.90;;;;;;5016103;28;20192;-59
2022/01/04 08:00:33;;;;;;;1.93;1.53;;;11.90;99.90;;;;;;5017088;28;20466;-59
2022/01/04 08:02:59;;;;;;;1.73;1.57;;;12.00;99.90;;;;;;5015391;28;20185;-59
2022/01/04 08:05:25;;;;;;;3.07;2.03;;;12.00;99.90;;;;;;5016588;28;20205;-59
2022/01/04 08:07:52;;;;;;;2.93;2.20;;;12.00;99.90;;;;;;5016088;28;20627;-55
2022/01/04 08:10:18;;;;;;;1.67;1.50;;;12.00;99.90;;;;;;5016099;28;20533;-51
2022/01/04 08:12:44;;;;;;;2.20;2.00;;;12.00;99.90;;;;;;5017945;28;20184;-54
2022/01/04 08:15:11;;;;;;;2.00;1.57;;;12.00;99.90;;;;;;5018727;28;20481;-56
2022/01/04 08:17:38;;;;;;;3.40;1.60;;;12.00;99.90;;;;;;5014949;28;20453;-55
2022/01/04 08:20:06;;;;;;;2.90;1.80;;;12.00;99.90;;;;;;5019344;28;20443;-53
2022/01/04 08:22:32;;;;;;;3.83;2.10;;;12.00;99.90;;;;;;5016265;28;20423;-57
2022/01/04 08:25:01;;;;;;;3.53;2.20;;;12.00;99.90;;;;;;5014480;28;20546;-57
2022/01/04 08:27:27;;;;;;;2.33;1.60;;;12.00;99.90;;;;;;5015440;28;20450;-58
2022/01/04 08:29:52;;;;;;;2.07;1.67;;;12.10;99.90;;;;;;5022402;28;20447;-56
2022/01/04 08:32:18;;;;;;;1.97;1.70;;;12.00;99.90;;;;;;5016832;28;20443;-56
2022/01/04 08:34:44;;;;;;;5.00;1.90;;;12.00;99.90;;;;;;5019941;28;20251;-58
2022/01/04 08:37:09;;;;;;;4.53;2.20;;;12.10;99.90;;;;;;5021541;28;20196;-57
2022/01/04 08:39:35;;;;;;;2.30;1.70;;;12.10;99.90;;;;;;5010908;28;20196;-58
2022/01/04 08:42:02;;;;;;;2.30;1.80;;;12.10;99.90;;;;;;5018463;28;20191;-55
2022/01/04 08:44:29;;;;;;;2.20;1.93;;;12.10;99.90;;;;;;5016486;28;20812;-57
2022/01/04 08:46:55;;;;;;;1.93;1.60;;;12.10;99.90;;;;;;5004358;28;21228;-57
2022/01/04 08:49:20;;;;;;;1.60;1.50;;;12.10;99.90;;;;;;5016440;28;20447;-58
2022/01/04 08:51:46;;;;;;;3.23;2.10;;;12.10;99.90;;;;;;5012469;28;20358;-57
2022/01/04 08:54:14;;;;;;;3.63;2.20;;;12.10;99.90;;;;;;5017276;28;20646;-55
2022/01/04 08:56:40;;;;;;;2.13;1.73;;;12.10;99.90;;;;;;5018936;28;20181;-55
2022/01/04 08:59:08;;;;;;;2.13;1.43;;;12.10;99.90;;;;;;5018300;28;20540;-57
2022/01/04 09:01:34;;;;;;;3.47;1.87;;;12.10;99.90;;;;;;5023124;28;20427;-56
2022/01/04 09:04:01;;;;;;;6.37;1.90;;;12.00;99.90;;;;;;5018158;28;20444;-59
2022/01/04 09:06:27;;;;;;;2.47;1.90;;;12.00;99.90;;;;;;5023806;28;20447;-59
2022/01/04 09:08:55;;;;;;;2.77;2.00;;;12.00;99.90;;;;;;5019946;28;20856;-59
2022/01/04 09:11:22;;;;;;;3.13;1.70;;;12.00;99.90;;;;;;5020516;28;20512;-59
2022/01/04 09:13:49;;;;;;;2.73;1.80;;;12.10;99.90;;;;;;5022163;28;20443;-59
2022/01/04 09:18:48;;;;;;;2.17;1.70;;;12.10;99.90;;;;;;5017446;28;20811;-59
2022/01/04 09:21:25;;;;;;;2.07;1.87;;;12.10;99.90;;;;;;5022518;28;20592;-59
2022/01/04 09:23:53;;;;;;;2.57;2.00;;;12.10;99.90;;;;;;5021242;28;20435;-59
2022/01/04 09:26:19;;;;;;;2.80;2.03;;;12.10;99.90;;;;;;5018230;28;20822;-59
2022/01/04 09:28:45;;;;;;;1.47;1.37;;;12.10;99.90;;;;;;5018038;28;20439;-56
2022/01/04 09:31:11;;;;;;;2.70;1.60;;;12.10;99.90;;;;;;5017955;28;20196;-59
2022/01/04 09:33:38;;;;;;;6.03;1.80;;;12.10;99.90;;;;;;5021579;28;20436;-59
2022/01/04 09:36:05;;;;;;;1.90;1.60;;;12.10;99.90;;;;;;5019605;28;20477;-59
2022/01/04 09:38:31;;;;;;;1.87;1.73;;;12.10;99.90;;;;;;5021166;28;20435;-58
2022/01/04 09:40:57;;;;;;;3.47;2.00;;;12.10;99.90;;;;;;5018118;28;20431;-58
2022/01/04 09:43:24;;;;;;;2.70;1.80;;;12.10;99.90;;;;;;5017987;28;20435;-56
2022/01/04 09:45:52;;;;;;;3.20;1.83;;;12.10;99.90;;;;;;5022189;28;20482;-59
2022/01/04 09:48:19;;;;;;;3.17;1.83;;;12.10;99.90;;;;;;5017002;28;20489;-58
2022/01/04 09:50:46;;;;;;;4.30;1.83;;;12.10;99.90;;;;;;5021505;28;20995;-59
2022/01/04 09:53:19;;;;;;;3.20;1.80;;;12.10;99.90;;;;;;5016700;28;20944;-57
2022/01/04 09:55:47;;;;;;;2.80;1.70;;;12.10;99.90;;;;;;5018942;28;20475;-59
2022/01/04 09:58:13;;;;;;;2.87;2.00;;;12.10;99.90;;;;;;5018560;28;20435;-58
2022/01/04 10:00:39;;;;;;;2.07;1.53;;;12.10;99.90;;;;;;5019727;28;20435;-56
2022/01/04 10:03:11;;;;;;;3.20;2.00;;;12.20;99.90;;;;;;5018507;28;20200;-57
2022/01/04 10:05:37;;;;;;;4.83;1.80;;;12.20;99.90;;;;;;5020001;28;21096;-58
2022/01/04 10:08:06;;;;;;;3.30;2.27;;;12.30;99.90;;;;;;5019350;28;20444;-58
2022/01/04 10:10:32;;;;;;;3.57;2.17;;;12.30;99.90;;;;;;5017154;28;20811;-58
2022/01/04 10:13:03;;;;;;;3.47;1.93;;;12.30;99.90;;;;;;5017528;28;21138;-58
2022/01/04 10:15:33;;;;;;;2.20;1.80;;;12.30;99.90;;;;;;5018929;28;20834;-59
2022/01/04 10:18:20;;;;;;;2.30;1.70;;;12.30;99.90;;;;;;5018512;28;20500;-58
2022/01/04 10:20:52;;;;;;;5.37;2.27;;;12.30;99.90;;;;;;5019103;28;20465;-59
2022/01/04 10:23:21;;;;;;;1.93;1.77;;;12.30;99.90;;;;;;5019232;28;20459;-58
2022/01/04 10:25:47;;;;;;;2.80;2.13;;;12.30;99.90;;;;;;5018266;28;20464;-58
2022/01/04 10:28:33;;;;;;;3.27;1.80;;;12.30;99.90;;;;;;5018822;28;20465;-59
2022/01/04 10:31:02;;;;;;;4.50;2.40;;;12.30;99.90;;;;;;5019530;28;20479;-60
2022/01/04 10:33:28;;;;;;;1.90;1.70;;;12.30;99.90;;;;;;5015860;28;20526;-58
2022/01/04 10:35:56;;;;;;;3.33;2.50;;;12.30;99.90;;;;;;5019314;28;20558;-59
2022/01/04 10:38:26;;;;;;;2.33;2.13;;;12.30;99.90;;;;;;5021716;28;20173;-59
2022/01/04 10:41:10;;;;;;;1.83;1.70;;;12.30;99.90;;;;;;5021868;28;20802;-58
2022/01/04 10:43:40;;;;;;;3.90;2.43;;;12.20;99.90;;;;;;5017027;28;20448;-58
2022/01/04 10:46:07;;;;;;;3.00;2.53;;;12.20;99.90;;;;;;5017733;28;20484;-59
2022/01/04 10:48:36;;;;;;;2.57;2.30;;;12.20;99.90;;;;;;5017898;28;20435;-59
2022/01/04 10:51:08;;;;;;;3.50;2.33;;;12.30;99.90;;;;;;5021742;28;20437;-59
2022/01/04 10:53:44;;;;;;;3.40;2.37;;;12.20;99.90;;;;;;5017019;28;20825;-61
2022/01/04 10:56:12;;;;;;;2.20;1.70;;;12.30;99.90;;;;;;5019346;28;20474;-59
2022/01/04 10:58:39;;;;;;;3.40;2.23;;;12.20;99.90;;;;;;5024059;28;20438;-58
2022/01/04 11:01:16;;;;;;;3.37;2.50;;;12.20;99.90;;;;;;5015956;28;20442;-59
2022/01/04 11:03:53;;;;;;;2.17;1.97;;;12.30;99.90;;;;;;5016515;28;20442;-59
2022/01/04 11:06:20;;;;;;;3.80;2.53;;;12.30;99.90;;;;;;5019867;28;20925;-59
2022/01/04 11:08:46;;;;;;;2.27;2.07;;;12.30;99.90;;;;;;5019609;28;20435;-60
2022/01/04 11:11:12;;;;;;;2.40;2.10;;;12.30;99.90;;;;;;5018709;28;20529;-59
2022/01/04 11:13:38;;;;;;;2.63;2.10;;;12.30;99.90;;;;;;5019253;28;20566;-59
2022/01/04 11:16:06;;;;;;;3.07;2.00;;;12.30;99.90;;;;;;5020478;28;20679;-58
2022/01/04 11:18:33;;;;;;;2.80;2.33;;;12.30;99.90;;;;;;5021809;28;20427;-59
2022/01/04 11:21:00;;;;;;;2.27;1.97;;;12.30;99.90;;;;;;5014826;28;20436;-60
2022/01/04 11:23:31;;;;;;;4.00;2.80;;;12.30;99.90;;;;;;5021632;28;20834;-58
2022/01/04 11:25:58;;;;;;;3.40;3.00;;;12.30;99.90;;;;;;5018654;28;22379;-59
2022/01/04 11:28:25;;;;;;;3.20;2.40;;;12.30;99.90;;;;;;5018085;28;20466;-58
2022/01/04 11:31:08;;;;;;;3.70;2.70;;;12.40;99.90;;;;;;5018520;28;20431;-59
2022/01/04 11:34:02;;;;;;;3.00;2.07;;;12.40;99.90;;;;;;5014191;28;20423;-59
2022/01/04 11:36:29;;;;;;;2.97;2.37;;;12.40;99.90;;;;;;5010534;28;20853;-59
2022/01/04 11:38:55;;;;;;;2.00;1.80;;;12.40;99.90;;;;;;5017413;28;20882;-59
2022/01/04 11:41:44;;;;;;;3.40;2.03;;;12.50;99.90;;;;;;5014165;28;20518;-59
2022/01/04 11:44:18;;;;;;;4.50;2.63;;;12.60;99.90;;;;;;5014658;28;20432;-58
2022/01/04 11:46:43;;;;;;;3.30;2.60;;;12.50;99.90;;;;;;5015070;28;20439;-60
2022/01/04 11:49:12;;;;;;;3.80;2.50;;;12.60;99.90;;;;;;5015126;28;20435;-59
2022/01/04 11:51:41;;;;;;;6.10;2.87;;;12.70;99.90;;;;;;5017213;28;20554;-59
2022/01/04 11:54:19;;;;;;;3.43;2.43;;;12.70;99.90;;;;;;5015099;28;20578;-59
2022/01/04 11:56:54;;;;;;;3.83;2.33;;;12.70;99.90;;;;;;5015502;28;20433;-59
2022/01/04 11:59:23;;;;;;;4.20;2.40;;;12.70;99.90;;;;;;5014678;28;20963;-60
2022/01/04 12:01:50;;;;;;;7.03;2.70;;;12.80;99.90;;;;;;5006527;28;20438;-60
2022/01/04 12:04:54;;;;;;;2.53;2.33;;;12.80;99.90;;;;;;5014620;28;20432;-59
2022/01/04 12:07:39;;;;;;;3.60;2.43;;;12.80;99.90;;;;;;5012036;28;20446;-58
2022/01/04 12:10:20;;;;;;;4.57;2.40;;;12.80;99.90;;;;;;5013427;28;20423;-59
2022/01/04 12:12:58;;;;;;;4.20;2.90;;;12.90;99.90;;;;;;5011790;28;20423;-59
2022/01/04 12:15:33;;;;;;;2.40;2.20;;;12.90;99.90;;;;;;5010096;28;20466;-60
2022/01/04 12:18:05;;;;;;;3.20;2.43;;;12.90;99.90;;;;;;5006069;28;20446;-59
2022/01/04 12:20:46;;;;;;;4.50;2.97;;;12.90;99.90;;;;;;5012426;28;20424;-59
2022/01/04 12:23:29;;;;;;;3.13;2.50;;;12.90;99.90;;;;;;5011932;28;20944;-60
2022/01/04 12:26:07;;;;;;;4.40;2.50;;;13.00;99.90;;;;;;5012428;28;20455;-61
2022/01/04 12:28:37;;;;;;;5.20;3.67;;;13.00;99.90;;;;;;5009888;28;20450;-58
2022/01/04 12:31:20;;;;;;;4.63;2.40;;;13.00;99.90;;;;;;5015167;28;20432;-57
2022/01/04 12:33:48;;;;;;;3.03;2.17;;;13.00;99.90;;;;;;5016560;28;20963;-56
2022/01/04 12:36:36;;;;;;;5.13;2.83;;;12.90;99.90;;;;;;5014794;28;20482;-56
2022/01/04 12:39:11;;;;;;;3.57;2.90;;;12.90;99.90;;;;;;5016432;28;20439;-56
2022/01/04 12:41:38;;;;;;;2.80;2.23;;;12.90;99.90;;;;;;5022096;28;20435;-55
2022/01/04 12:44:05;;;;;;;3.03;2.50;;;12.80;99.90;;;;;;5022072;28;20426;-52
2022/01/04 12:46:36;;;;;;;6.00;2.70;;;12.70;99.90;;;;;;5011824;28;20546;-54
2022/01/04 12:49:10;;;;;;;5.50;2.93;;;12.60;99.90;;;;;;5018600;28;20424;-54
2022/01/04 12:51:47;;;;;;;3.03;2.40;;;12.60;99.90;;;;;;5018971;28;20454;-51
2022/01/04 12:54:17;;;;;;;4.33;2.70;;;12.60;99.90;;;;;;5018123;28;20506;-55
2022/01/04 12:57:01;;;;;;;2.93;2.30;;;12.50;99.90;;;;;;5018699;28;20423;-53
2022/01/04 12:59:27;;;;;;;2.53;2.00;;;12.60;99.90;;;;;;5015816;28;20525;-50